Time;durP1;ratioP1;P1;durP2;ratioP2;P2;SDS_P1;SDS_P2;PMS_P1;PMS_P2;Temp;Humidity;BMP_temperature;BMP_pressure;BME280_temperature;BME280_humidity;BME280_pressure;Samples;Min_cycle;Max_cycle;Signal;HPM_P1;HPM_P2
2021/08/31 00:01:07;;;;;;;17.35;10.77;;;16.10;99.90;;;;;;5018719;28;20192;-90
2021/08/31 00:03:34;;;;;;;16.37;10.87;;;16.10;99.90;;;;;;5021631;28;20221;-90
2021/08/31 00:06:01;;;;;;;19.13;10.77;;;16.10;99.90;;;;;;5022861;28;20202;-90
2021/08/31 00:08:30;;;;;;;16.60;11.23;;;16.10;99.90;;;;;;5014137;28;20760;-90
2021/08/31 00:10:57;;;;;;;22.80;12.30;;;16.10;99.90;;;;;;5025945;28;20201;-89
2021/08/31 00:13:24;;;;;;;15.85;10.55;;;16.00;99.90;;;;;;5026488;28;20571;-89
2021/08/31 00:15:50;;;;;;;18.00;11.32;;;16.00;99.90;;;;;;5030337;28;20244;-90
2021/08/31 00:18:17;;;;;;;17.00;11.50;;;16.00;99.90;;;;;;5040340;28;20320;-89
2021/08/31 00:20:44;;;;;;;17.85;11.15;;;16.00;99.90;;;;;;5032759;28;20193;-89
2021/08/31 00:23:13;;;;;;;17.27;11.97;;;16.00;99.90;;;;;;5028197;28;20292;-88
2021/08/31 00:25:41;;;;;;;16.73;11.03;;;16.00;99.90;;;;;;5021512;28;20198;-90
2021/08/31 00:28:08;;;;;;;20.17;11.48;;;15.90;99.90;;;;;;5014513;28;20285;-90
2021/08/31 00:30:35;;;;;;;18.15;11.82;;;15.90;99.90;;;;;;5016784;28;20202;-90
2021/08/31 00:33:02;;;;;;;15.70;11.80;;;15.90;99.90;;;;;;5025961;28;20594;-90
2021/08/31 00:35:29;;;;;;;21.13;11.73;;;15.90;99.90;;;;;;5012246;28;20277;-91
2021/08/31 00:37:56;;;;;;;17.02;10.77;;;15.90;99.90;;;;;;5029289;28;20227;-89
2021/08/31 00:40:23;;;;;;;20.13;12.23;;;15.90;99.90;;;;;;5024847;28;20197;-89
2021/08/31 00:42:51;;;;;;;20.48;11.68;;;15.90;99.90;;;;;;5033447;28;20558;-88
2021/08/31 00:45:18;;;;;;;22.98;12.45;;;15.90;99.90;;;;;;5031737;28;20212;-90
2021/08/31 00:47:45;;;;;;;17.45;12.02;;;15.90;99.90;;;;;;5039030;28;20214;-90
2021/08/31 00:50:13;;;;;;;18.48;11.70;;;15.90;99.90;;;;;;5040212;28;20201;-89
2021/08/31 00:52:40;;;;;;;16.67;11.27;;;15.90;99.90;;;;;;5035720;28;20201;-90
2021/08/31 00:55:08;;;;;;;17.15;11.20;;;15.90;99.90;;;;;;5032887;28;20194;-89
2021/08/31 00:57:37;;;;;;;15.93;11.10;;;15.90;99.90;;;;;;5034484;28;20190;-88
2021/08/31 01:00:09;;;;;;;16.45;11.73;;;15.80;99.90;;;;;;5039088;28;20634;-91
2021/08/31 01:02:35;;;;;;;19.40;12.30;;;15.90;99.90;;;;;;5032276;28;20213;-92
2021/08/31 01:05:03;;;;;;;17.50;12.27;;;15.80;99.90;;;;;;5026885;28;20229;-91
2021/08/31 01:07:30;;;;;;;16.75;12.20;;;15.80;99.90;;;;;;5036370;28;20225;-89
2021/08/31 01:09:57;;;;;;;18.83;12.37;;;15.80;99.90;;;;;;5031996;28;20200;-90
2021/08/31 01:12:26;;;;;;;19.73;12.60;;;15.80;99.90;;;;;;5021267;28;20320;-89
2021/08/31 01:14:54;;;;;;;19.20;12.90;;;15.80;99.90;;;;;;5010945;28;20199;-90
2021/08/31 01:17:24;;;;;;;20.10;14.13;;;15.80;99.90;;;;;;5029578;28;20263;-91
2021/08/31 01:19:51;;;;;;;19.90;13.83;;;15.80;99.90;;;;;;5032717;28;20222;-90
2021/08/31 01:22:17;;;;;;;21.97;14.30;;;15.80;99.90;;;;;;5034031;28;20210;-90
2021/08/31 01:24:46;;;;;;;19.57;12.83;;;15.80;99.90;;;;;;5000422;28;20591;-90
2021/08/31 01:27:14;;;;;;;19.55;14.10;;;15.80;99.90;;;;;;5032673;28;20293;-89
2021/08/31 01:29:41;;;;;;;21.55;14.32;;;15.80;99.90;;;;;;5021853;28;20208;-90
2021/08/31 01:32:09;;;;;;;19.43;14.43;;;15.80;99.90;;;;;;5023366;28;20282;-89
2021/08/31 01:34:35;;;;;;;20.60;14.43;;;15.80;99.90;;;;;;5024788;28;20261;-86
2021/08/31 01:37:03;;;;;;;19.38;14.15;;;15.80;99.90;;;;;;5023481;28;20658;-88
2021/08/31 01:39:30;;;;;;;23.53;14.97;;;15.70;99.90;;;;;;5030933;28;20696;-88
2021/08/31 01:41:57;;;;;;;21.77;15.35;;;15.80;99.90;;;;;;5031832;28;20289;-88
2021/08/31 01:44:25;;;;;;;21.73;14.17;;;15.80;99.90;;;;;;5029228;28;20204;-87
2021/08/31 01:46:52;;;;;;;20.57;15.57;;;15.80;99.90;;;;;;5021763;28;20221;-88
2021/08/31 01:49:19;;;;;;;20.70;15.38;;;15.80;99.90;;;;;;5000099;28;20198;-89
2021/08/31 01:51:46;;;;;;;21.47;15.07;;;15.80;99.90;;;;;;5024671;28;20198;-91
2021/08/31 01:54:13;;;;;;;21.70;16.23;;;15.80;99.90;;;;;;5026838;28;20195;-91
2021/08/31 01:56:41;;;;;;;23.30;17.33;;;15.70;99.90;;;;;;5031915;28;20198;-91
2021/08/31 01:59:08;;;;;;;19.27;15.27;;;15.70;99.90;;;;;;5022990;28;20712;-90
2021/08/31 02:01:39;;;;;;;21.65;16.95;;;15.70;99.90;;;;;;5028484;28;20716;-90
2021/08/31 02:04:06;;;;;;;22.03;15.93;;;15.70;99.90;;;;;;5031681;28;20232;-90
2021/08/31 02:06:33;;;;;;;23.33;16.00;;;15.70;99.90;;;;;;5015192;28;20244;-91
2021/08/31 02:09:00;;;;;;;19.83;16.17;;;15.70;99.90;;;;;;5023711;28;20240;-91
2021/08/31 02:11:28;;;;;;;25.50;17.27;;;15.70;99.90;;;;;;5025173;28;20202;-91
2021/08/31 02:13:58;;;;;;;25.77;17.90;;;15.70;99.90;;;;;;5019362;28;20200;-89
2021/08/31 02:16:25;;;;;;;24.63;17.53;;;15.70;99.90;;;;;;5015787;28;20664;-90
2021/08/31 02:18:53;;;;;;;21.37;16.97;;;15.70;99.90;;;;;;5022915;28;20232;-90
2021/08/31 02:21:20;;;;;;;23.23;18.13;;;15.70;99.90;;;;;;5028447;28;20718;-90
2021/08/31 02:23:47;;;;;;;24.20;18.13;;;15.60;99.90;;;;;;5019407;28;20201;-90
2021/08/31 02:26:14;;;;;;;26.87;17.73;;;15.60;99.90;;;;;;5018310;28;20293;-90
2021/08/31 02:28:41;;;;;;;27.55;19.60;;;15.60;99.90;;;;;;5028369;28;21276;-90
2021/08/31 02:31:08;;;;;;;24.73;18.07;;;15.70;99.90;;;;;;5023051;28;20632;-90
2021/08/31 02:33:35;;;;;;;23.02;17.92;;;15.60;99.90;;;;;;5026099;28;20308;-90
2021/08/31 02:36:03;;;;;;;26.25;18.25;;;15.60;99.90;;;;;;5029391;28;20380;-91
2021/08/31 02:38:31;;;;;;;25.63;17.48;;;15.60;99.90;;;;;;5022448;28;20226;-89
2021/08/31 02:40:57;;;;;;;23.58;17.95;;;15.60;99.90;;;;;;4999010;28;20225;-92
2021/08/31 02:43:24;;;;;;;23.73;18.63;;;15.60;99.90;;;;;;5025999;28;20297;-92
2021/08/31 02:45:51;;;;;;;25.30;17.93;;;15.70;99.90;;;;;;5036849;28;20225;-93
2021/08/31 02:48:18;;;;;;;26.63;18.70;;;15.70;99.90;;;;;;5025079;28;20292;-91
2021/08/31 02:50:45;;;;;;;20.60;17.70;;;15.60;99.90;;;;;;5028524;28;20280;-91
2021/08/31 02:53:14;;;;;;;24.70;18.17;;;15.60;99.90;;;;;;5033235;28;20232;-91
2021/08/31 02:55:41;;;;;;;22.37;17.73;;;15.50;99.90;;;;;;5023484;28;20209;-91
2021/08/31 02:58:08;;;;;;;20.97;16.83;;;15.50;99.90;;;;;;5014262;28;20212;-90
2021/08/31 03:00:37;;;;;;;23.47;18.43;;;15.50;99.90;;;;;;5010964;28;20189;-90
2021/08/31 03:03:05;;;;;;;24.43;19.00;;;15.60;99.90;;;;;;5032505;28;20287;-91
2021/08/31 03:05:32;;;;;;;26.08;18.23;;;15.60;99.90;;;;;;5025306;28;20201;-90
2021/08/31 03:07:59;;;;;;;28.53;19.27;;;15.50;99.90;;;;;;5027394;28;20636;-88
2021/08/31 03:10:27;;;;;;;25.85;17.75;;;15.50;99.90;;;;;;5016951;28;20216;-90
2021/08/31 03:12:54;;;;;;;26.10;18.88;;;15.60;99.90;;;;;;5014169;28;20302;-89
2021/08/31 03:15:21;;;;;;;24.67;18.25;;;15.60;99.90;;;;;;5018674;28;20198;-89
2021/08/31 03:17:47;;;;;;;23.65;18.42;;;15.50;99.90;;;;;;5023977;28;20229;-91
2021/08/31 03:20:14;;;;;;;23.90;18.00;;;15.50;99.90;;;;;;5023826;28;20313;-91
2021/08/31 03:22:41;;;;;;;26.70;19.93;;;15.50;99.90;;;;;;5017967;28;20282;-91
2021/08/31 03:25:09;;;;;;;25.17;18.17;;;15.50;99.90;;;;;;5032446;28;20281;-91
2021/08/31 03:27:38;;;;;;;24.27;19.47;;;15.50;99.90;;;;;;5040449;28;20445;-91
2021/08/31 03:30:06;;;;;;;26.00;17.97;;;15.50;99.90;;;;;;5028712;28;20245;-91
2021/08/31 03:32:33;;;;;;;24.77;18.70;;;15.50;99.90;;;;;;5018914;28;20248;-90
2021/08/31 03:35:00;;;;;;;28.23;17.43;;;15.50;99.90;;;;;;5022342;28;20272;-89
2021/08/31 03:37:26;;;;;;;25.57;18.87;;;15.50;99.90;;;;;;5023678;28;20194;-89
2021/08/31 03:39:54;;;;;;;23.67;18.73;;;15.50;99.90;;;;;;5022863;28;20222;-89
2021/08/31 03:42:21;;;;;;;22.50;18.58;;;15.50;99.90;;;;;;5022891;28;20204;-89
2021/08/31 03:44:49;;;;;;;22.27;17.93;;;15.50;99.90;;;;;;5020371;28;20683;-89
2021/08/31 03:47:16;;;;;;;22.25;17.02;;;15.50;99.90;;;;;;5032531;28;20228;-90
2021/08/31 03:49:43;;;;;;;22.47;17.97;;;15.50;99.90;;;;;;5030973;28;20256;-90
2021/08/31 03:52:10;;;;;;;24.77;18.80;;;15.50;99.90;;;;;;5017723;28;20287;-89
2021/08/31 03:54:37;;;;;;;27.17;18.50;;;15.50;99.90;;;;;;5018366;28;20627;-90
2021/08/31 03:57:04;;;;;;;26.77;17.83;;;15.50;99.90;;;;;;5025350;28;20282;-89
2021/08/31 03:59:31;;;;;;;24.60;17.55;;;15.50;99.90;;;;;;5018842;28;20229;-89
2021/08/31 04:01:59;;;;;;;24.53;17.80;;;15.50;99.90;;;;;;5020986;28;20226;-90
2021/08/31 04:04:26;;;;;;;27.00;19.03;;;15.50;99.90;;;;;;5019755;28;20296;-88
2021/08/31 04:06:53;;;;;;;26.30;18.27;;;15.50;99.90;;;;;;5022847;28;20284;-89
2021/08/31 04:09:20;;;;;;;25.77;18.47;;;15.50;99.90;;;;;;5017443;28;20245;-89
2021/08/31 04:11:47;;;;;;;23.80;18.07;;;15.50;99.90;;;;;;5027817;28;20223;-89
2021/08/31 04:14:13;;;;;;;24.63;19.67;;;15.50;99.90;;;;;;5023927;28;20197;-88
2021/08/31 04:16:40;;;;;;;24.20;20.00;;;15.50;99.90;;;;;;5016581;28;20229;-89
2021/08/31 04:19:09;;;;;;;22.90;18.53;;;15.50;99.90;;;;;;5026108;28;21662;-90
2021/08/31 04:21:35;;;;;;;22.63;18.17;;;15.50;99.90;;;;;;5016446;28;20289;-88
2021/08/31 04:24:03;;;;;;;22.77;17.42;;;15.50;99.90;;;;;;5026183;28;20234;-87
2021/08/31 04:26:30;;;;;;;25.48;17.55;;;15.50;99.90;;;;;;5031224;28;20723;-87
2021/08/31 04:28:57;;;;;;;21.70;17.50;;;15.50;99.90;;;;;;5034581;28;20198;-88
2021/08/31 04:31:24;;;;;;;23.30;17.77;;;15.60;99.90;;;;;;5023359;28;20582;-85
2021/08/31 04:33:51;;;;;;;26.03;17.83;;;15.60;99.90;;;;;;5035590;28;20719;-88
2021/08/31 04:36:20;;;;;;;24.57;18.83;;;15.60;99.90;;;;;;5023532;28;20236;-89
2021/08/31 04:38:47;;;;;;;22.27;18.85;;;15.60;99.90;;;;;;5034916;28;20685;-88
2021/08/31 04:41:14;;;;;;;23.75;17.40;;;15.60;99.90;;;;;;5029587;28;20201;-89
2021/08/31 04:43:41;;;;;;;20.80;16.77;;;15.50;99.90;;;;;;5035032;28;20361;-90
2021/08/31 04:46:09;;;;;;;25.17;18.03;;;15.60;99.90;;;;;;5018426;28;20281;-90
2021/08/31 04:48:36;;;;;;;22.00;18.67;;;15.60;99.90;;;;;;5026439;28;20202;-91
2021/08/31 04:51:03;;;;;;;23.07;18.70;;;15.50;99.90;;;;;;5024519;28;20202;-90
2021/08/31 04:53:32;;;;;;;25.67;18.63;;;15.50;99.90;;;;;;5016712;28;20198;-91
2021/08/31 04:55:58;;;;;;;22.70;17.33;;;15.40;99.90;;;;;;5029636;28;20228;-89
2021/08/31 04:58:25;;;;;;;24.57;18.43;;;15.50;99.90;;;;;;5024246;28;20297;-90
2021/08/31 05:00:52;;;;;;;21.67;17.90;;;15.50;99.90;;;;;;5032436;28;20311;-90
2021/08/31 05:03:19;;;;;;;22.43;17.53;;;15.50;99.90;;;;;;5035787;28;20248;-91
2021/08/31 05:05:46;;;;;;;22.07;17.23;;;15.50;99.90;;;;;;5024660;28;20563;-89
2021/08/31 05:08:13;;;;;;;20.83;16.67;;;15.50;99.90;;;;;;5015319;28;20212;-82
2021/08/31 05:10:41;;;;;;;22.13;17.57;;;15.50;99.90;;;;;;5030255;28;20288;-83
2021/08/31 05:13:08;;;;;;;20.17;16.77;;;15.50;99.90;;;;;;5016252;28;20205;-82
2021/08/31 05:15:36;;;;;;;23.93;17.30;;;15.50;99.90;;;;;;5018769;28;20225;-82
2021/08/31 05:18:04;;;;;;;22.40;17.30;;;15.50;99.90;;;;;;5019270;28;20792;-82
2021/08/31 05:20:32;;;;;;;21.48;17.25;;;15.50;99.90;;;;;;5017251;28;20774;-82
2021/08/31 05:22:59;;;;;;;22.17;17.57;;;15.50;99.90;;;;;;5024047;28;20205;-83
2021/08/31 05:25:27;;;;;;;20.17;16.83;;;15.50;99.90;;;;;;5023631;28;20687;-82
2021/08/31 05:27:55;;;;;;;20.35;16.05;;;15.50;99.90;;;;;;5019106;28;20197;-82
2021/08/31 05:30:22;;;;;;;19.70;16.85;;;15.50;99.90;;;;;;5012509;28;20568;-82
2021/08/31 05:32:49;;;;;;;20.10;17.20;;;15.50;99.90;;;;;;5018939;28;20257;-85
2021/08/31 05:35:16;;;;;;;24.77;20.57;;;15.60;99.90;;;;;;5022167;28;20202;-84
2021/08/31 05:37:43;;;;;;;21.73;17.30;;;15.50;99.90;;;;;;5022766;28;20777;-84
2021/08/31 05:40:11;;;;;;;22.07;17.53;;;15.50;99.90;;;;;;5019463;28;20268;-83
2021/08/31 05:42:38;;;;;;;25.70;20.53;;;15.60;99.90;;;;;;5014477;28;20231;-86
2021/08/31 05:45:08;;;;;;;25.57;19.27;;;15.60;99.90;;;;;;5015925;28;20705;-83
2021/08/31 05:47:35;;;;;;;23.87;18.37;;;15.60;99.90;;;;;;5025343;28;20201;-83
2021/08/31 05:50:02;;;;;;;22.47;18.87;;;15.60;99.90;;;;;;5019209;28;20219;-84
2021/08/31 05:52:29;;;;;;;23.57;17.20;;;15.50;99.90;;;;;;5022007;28;20204;-84
2021/08/31 05:54:58;;;;;;;21.27;18.07;;;15.40;99.90;;;;;;5020768;28;20190;-86
2021/08/31 05:57:25;;;;;;;21.70;16.17;;;15.50;99.90;;;;;;5019916;28;20210;-86
2021/08/31 05:59:51;;;;;;;28.17;18.20;;;15.50;99.90;;;;;;5017453;28;20585;-83
2021/08/31 06:02:22;;;;;;;21.07;17.20;;;15.50;99.90;;;;;;5020182;28;20194;-83
2021/08/31 06:04:49;;;;;;;22.93;17.60;;;15.50;99.90;;;;;;5021951;28;20197;-83
2021/08/31 06:07:16;;;;;;;20.90;17.67;;;15.50;99.90;;;;;;5021264;28;20209;-82
2021/08/31 06:09:43;;;;;;;20.87;18.00;;;15.50;99.90;;;;;;5023750;28;20197;-83
2021/08/31 06:12:12;;;;;;;21.23;16.77;;;15.50;99.90;;;;;;5019515;28;20675;-82
2021/08/31 06:14:40;;;;;;;20.07;16.27;;;15.50;99.90;;;;;;5017359;28;20285;-84
2021/08/31 06:17:08;;;;;;;20.93;16.43;;;15.60;99.90;;;;;;5017742;28;20210;-83
2021/08/31 06:19:37;;;;;;;21.30;16.90;;;15.60;99.90;;;;;;5019197;28;20305;-85
2021/08/31 06:22:05;;;;;;;19.38;15.65;;;15.60;99.90;;;;;;5023843;28;21146;-83
2021/08/31 06:24:32;;;;;;;21.17;17.10;;;15.70;99.90;;;;;;5016180;28;20652;-84
2021/08/31 06:26:59;;;;;;;19.30;16.75;;;15.60;99.90;;;;;;5023269;28;20204;-84
2021/08/31 06:29:26;;;;;;;20.80;16.33;;;15.70;99.90;;;;;;5017956;28;20193;-85
2021/08/31 06:31:53;;;;;;;20.73;16.05;;;15.80;99.90;;;;;;5025230;28;20295;-84
2021/08/31 06:34:20;;;;;;;21.37;16.73;;;15.80;99.90;;;;;;5020651;28;20297;-83
2021/08/31 06:36:48;;;;;;;21.67;16.67;;;15.80;99.90;;;;;;5021635;28;20288;-83
2021/08/31 06:39:16;;;;;;;18.17;15.20;;;15.80;99.90;;;;;;5018957;28;20758;-83
2021/08/31 06:41:43;;;;;;;20.52;15.40;;;15.80;99.90;;;;;;5018527;28;20619;-80
2021/08/31 06:44:10;;;;;;;19.50;14.63;;;15.90;99.90;;;;;;5020903;28;20699;-84
2021/08/31 06:46:37;;;;;;;15.65;13.63;;;15.80;99.90;;;;;;5015855;28;20193;-84
2021/08/31 06:49:03;;;;;;;17.95;14.90;;;15.90;99.90;;;;;;5019563;28;20293;-84
2021/08/31 06:51:30;;;;;;;21.52;15.30;;;15.90;99.90;;;;;;5027764;28;20284;-86
2021/08/31 06:53:59;;;;;;;19.08;15.43;;;15.90;99.90;;;;;;5023204;28;20198;-84
2021/08/31 06:56:26;;;;;;;17.27;14.03;;;15.90;99.90;;;;;;5019665;28;20726;-85
2021/08/31 06:58:53;;;;;;;18.75;14.25;;;16.00;99.90;;;;;;5018403;28;20300;-83
2021/08/31 07:01:20;;;;;;;18.88;14.30;;;16.10;99.90;;;;;;5016034;28;20232;-82
2021/08/31 07:03:47;;;;;;;19.83;14.48;;;16.10;99.90;;;;;;5012329;28;20638;-84
2021/08/31 07:06:14;;;;;;;22.35;14.43;;;16.20;99.90;;;;;;5014219;28;20194;-83
2021/08/31 07:08:41;;;;;;;18.83;14.82;;;16.20;99.90;;;;;;5017856;28;20244;-83
2021/08/31 07:11:09;;;;;;;21.08;15.90;;;16.10;99.90;;;;;;5021624;28;20233;-83
2021/08/31 07:13:36;;;;;;;23.58;15.07;;;16.10;99.90;;;;;;5020963;28;20669;-84
2021/08/31 07:16:03;;;;;;;23.50;15.07;;;16.10;99.90;;;;;;5022082;28;20213;-80
2021/08/31 07:18:32;;;;;;;19.65;14.73;;;16.00;99.90;;;;;;5025051;28;20201;-83
2021/08/31 07:20:59;;;;;;;20.60;15.03;;;16.10;99.90;;;;;;5025152;28;20229;-84
2021/08/31 07:23:26;;;;;;;19.20;14.02;;;16.00;99.90;;;;;;5016183;28;20539;-82
2021/08/31 07:25:53;;;;;;;18.83;13.60;;;16.10;99.90;;;;;;5024559;28;20193;-82
2021/08/31 07:28:22;;;;;;;19.23;13.90;;;16.00;99.90;;;;;;5021311;28;20261;-84
2021/08/31 07:30:48;;;;;;;21.02;14.27;;;16.10;99.90;;;;;;5013130;28;20217;-81
2021/08/31 07:33:16;;;;;;;19.87;14.23;;;16.10;99.90;;;;;;5020305;28;20201;-83
2021/08/31 07:35:44;;;;;;;19.98;15.55;;;16.00;99.90;;;;;;5016461;28;20201;-82
2021/08/31 07:38:11;;;;;;;21.08;14.55;;;15.90;99.90;;;;;;5026698;28;20653;-82
2021/08/31 07:40:38;;;;;;;17.13;14.00;;;16.00;99.90;;;;;;5024896;28;20762;-83
2021/08/31 07:43:05;;;;;;;18.07;13.07;;;16.10;99.90;;;;;;5018092;28;20228;-82
2021/08/31 07:45:34;;;;;;;21.80;13.82;;;16.10;99.90;;;;;;5017281;28;20247;-81
2021/08/31 07:48:01;;;;;;;17.57;12.50;;;16.20;99.90;;;;;;5017989;28;20209;-83
2021/08/31 07:50:28;;;;;;;18.55;13.32;;;16.30;99.90;;;;;;5022976;28;20189;-82
2021/08/31 07:52:55;;;;;;;17.10;12.98;;;16.20;99.90;;;;;;5018243;28;20684;-82
2021/08/31 07:55:22;;;;;;;17.70;12.93;;;16.00;99.90;;;;;;5016280;28;20672;-86
2021/08/31 07:57:49;;;;;;;16.17;11.68;;;16.00;99.90;;;;;;5013130;28;20218;-82
2021/08/31 08:00:17;;;;;;;18.63;13.30;;;16.20;99.90;;;;;;5008780;28;20320;-81
2021/08/31 08:02:46;;;;;;;16.70;12.67;;;16.10;99.90;;;;;;5011469;28;20552;-82
2021/08/31 08:05:13;;;;;;;19.95;13.07;;;16.10;99.90;;;;;;5014899;28;20325;-82
2021/08/31 08:07:40;;;;;;;18.77;13.48;;;16.20;99.90;;;;;;5009384;28;20216;-82
2021/08/31 08:10:08;;;;;;;19.45;12.52;;;16.10;99.90;;;;;;5018629;28;20605;-82
2021/08/31 08:12:35;;;;;;;15.57;12.00;;;16.10;99.90;;;;;;5014613;28;20213;-82
2021/08/31 08:15:02;;;;;;;15.52;12.25;;;16.20;99.90;;;;;;5014181;28;20221;-80
2021/08/31 08:17:29;;;;;;;14.67;12.00;;;16.20;99.90;;;;;;5010232;28;20242;-81
2021/08/31 08:19:57;;;;;;;19.15;13.30;;;16.30;99.90;;;;;;5013704;28;20281;-81
2021/08/31 08:22:24;;;;;;;16.73;12.63;;;16.10;99.90;;;;;;5012122;28;20232;-82
2021/08/31 08:24:51;;;;;;;16.35;12.30;;;16.20;99.90;;;;;;5011716;28;20693;-82
2021/08/31 08:27:18;;;;;;;18.45;11.55;;;16.20;99.90;;;;;;5012587;28;20218;-83
2021/08/31 08:29:45;;;;;;;15.05;11.55;;;16.40;99.90;;;;;;5022594;28;20210;-81
2021/08/31 08:32:13;;;;;;;17.88;12.18;;;16.50;99.90;;;;;;5013926;28;20288;-82
2021/08/31 08:34:40;;;;;;;15.65;11.63;;;16.50;99.90;;;;;;5013864;28;21337;-81
2021/08/31 08:37:10;;;;;;;19.25;11.30;;;16.60;99.90;;;;;;5007352;28;20221;-80
2021/08/31 08:39:37;;;;;;;15.95;10.55;;;16.70;99.90;;;;;;5011000;28;20586;-81
2021/08/31 08:42:06;;;;;;;14.55;11.15;;;16.70;99.90;;;;;;5014422;28;20253;-82
2021/08/31 08:44:36;;;;;;;16.45;11.13;;;16.70;99.90;;;;;;5012287;28;20572;-81
2021/08/31 08:47:03;;;;;;;13.25;9.38;;;16.90;99.90;;;;;;5012701;28;20223;-80
2021/08/31 08:49:43;;;;;;;14.68;10.02;;;17.20;99.90;;;;;;5018148;28;20202;-79
2021/08/31 08:52:12;;;;;;;15.60;10.77;;;17.60;99.90;;;;;;5020346;28;20209;-78
2021/08/31 08:54:40;;;;;;;16.48;9.18;;;17.60;99.90;;;;;;5018423;28;20217;-79
2021/08/31 08:57:09;;;;;;;13.48;8.68;;;17.40;99.90;;;;;;5008011;28;20213;-80
2021/08/31 08:59:51;;;;;;;10.40;8.13;;;17.20;99.90;;;;;;5015508;28;20660;-81
2021/08/31 09:02:32;;;;;;;13.90;7.70;;;17.30;99.90;;;;;;5017665;28;20264;-79
2021/08/31 09:04:59;;;;;;;11.18;8.07;;;17.50;99.90;;;;;;5015479;28;20259;-81
2021/08/31 09:07:29;;;;;;;12.27;7.63;;;17.40;99.90;;;;;;5014658;28;20691;-81
2021/08/31 09:10:13;;;;;;;11.45;7.85;;;17.50;99.90;;;;;;5016087;28;20291;-82
2021/08/31 09:12:42;;;;;;;12.25;8.38;;;17.50;99.90;;;;;;5019458;28;20214;-84
2021/08/31 09:15:29;;;;;;;12.32;7.90;;;17.60;99.90;;;;;;5021600;28;20197;-82
2021/08/31 09:18:15;;;;;;;10.57;6.88;;;17.80;99.90;;;;;;5012767;28;20190;-83
2021/08/31 09:20:46;;;;;;;12.85;8.05;;;17.90;99.90;;;;;;5018458;28;20225;-82
2021/08/31 09:23:19;;;;;;;10.80;7.35;;;17.80;99.90;;;;;;5021974;28;20226;-79
2021/08/31 09:25:47;;;;;;;12.13;7.85;;;17.90;99.90;;;;;;5019058;28;20213;-80
2021/08/31 09:28:24;;;;;;;12.80;7.78;;;18.00;99.90;;;;;;5018597;28;20276;-83
2021/08/31 09:31:00;;;;;;;10.80;7.93;;;18.30;99.90;;;;;;5019285;28;20197;-79
2021/08/31 09:33:29;;;;;;;10.65;7.78;;;18.40;99.90;;;;;;5015622;28;20198;-81
2021/08/31 09:36:13;;;;;;;12.07;7.30;;;18.70;99.90;;;;;;5014339;28;20245;-78
2021/08/31 09:38:53;;;;;;;12.15;7.00;;;19.10;99.90;;;;;;5021161;28;20332;-79
2021/08/31 09:41:41;;;;;;;12.95;6.82;;;19.60;99.90;;;;;;5013791;28;21257;-81
2021/08/31 09:44:11;;;;;;;11.15;6.35;;;20.00;99.90;;;;;;5004442;28;20240;-82
2021/08/31 09:46:58;;;;;;;9.57;6.95;;;20.50;99.90;;;;;;5018580;28;20692;-78
2021/08/31 09:49:28;;;;;;;11.43;6.90;;;20.70;99.90;;;;;;5015833;28;22441;-78
2021/08/31 09:52:04;;;;;;;11.27;6.70;;;21.50;99.90;;;;;;5017206;28;20213;-78
2021/08/31 09:54:36;;;;;;;10.75;7.15;;;20.70;99.90;;;;;;5018212;28;20202;-80
2021/08/31 09:57:34;;;;;;;9.23;6.55;;;19.90;99.90;;;;;;5016057;28;20599;-79
2021/08/31 10:00:04;;;;;;;10.15;6.60;;;20.40;99.90;;;;;;5014564;28;20669;-79
2021/08/31 10:02:36;;;;;;;11.60;7.30;;;20.80;99.90;;;;;;5021977;28;20773;-78
2021/08/31 10:05:04;;;;;;;9.98;6.70;;;20.40;99.90;;;;;;5027905;28;20200;-76
2021/08/31 10:07:32;;;;;;;12.30;7.35;;;20.20;99.90;;;;;;5018828;28;20228;-78
2021/08/31 10:10:26;;;;;;;10.23;7.22;;;19.50;99.90;;;;;;5035664;28;20896;-79
2021/08/31 10:13:13;;;;;;;11.10;6.95;;;19.30;99.90;;;;;;5023106;28;20207;-79
2021/08/31 10:15:58;;;;;;;10.73;6.47;;;19.70;99.90;;;;;;5032924;28;20205;-80
2021/08/31 10:18:30;;;;;;;9.80;7.15;;;20.50;99.90;;;;;;5027298;28;20460;-82
2021/08/31 10:21:52;;;;;;;9.25;6.65;;;20.60;99.90;;;;;;5012434;28;20254;-83
2021/08/31 10:24:19;;;;;;;8.18;5.75;;;20.00;99.90;;;;;;5002736;28;20289;-86
2021/08/31 10:26:49;;;;;;;12.63;5.90;;;19.60;99.90;;;;;;5030555;28;20317;-84
2021/08/31 10:29:29;;;;;;;9.73;6.75;;;19.90;99.90;;;;;;5033999;28;20240;-85
2021/08/31 10:31:58;;;;;;;13.20;5.95;;;19.70;99.90;;;;;;5027360;28;20758;-84
2021/08/31 10:34:41;;;;;;;9.40;6.80;;;19.80;99.90;;;;;;5032352;28;20236;-85
2021/08/31 10:37:11;;;;;;;11.27;5.90;;;19.90;99.90;;;;;;5029036;28;20304;-84
2021/08/31 10:39:47;;;;;;;12.07;6.72;;;20.00;99.90;;;;;;5038882;28;20193;-85
2021/08/31 10:42:41;;;;;;;8.93;5.95;;;19.10;99.90;;;;;;5029520;28;20275;-84
2021/08/31 10:45:29;;;;;;;11.25;6.38;;;19.40;99.90;;;;;;5025358;28;20210;-83
2021/08/31 10:47:56;;;;;;;9.40;5.75;;;19.70;99.90;;;;;;5027807;28;20197;-83
2021/08/31 10:50:26;;;;;;;8.32;6.45;;;20.20;99.90;;;;;;5031912;28;20562;-84
2021/08/31 10:53:03;;;;;;;9.27;5.88;;;20.60;99.90;;;;;;5019036;28;20206;-83
2021/08/31 10:55:46;;;;;;;16.05;7.63;;;21.30;99.90;;;;;;5023684;28;20201;-85
2021/08/31 10:58:37;;;;;;;10.25;7.57;;;21.80;99.90;;;;;;5026925;28;20200;-85
2021/08/31 11:01:15;;;;;;;10.30;6.72;;;21.80;99.90;;;;;;5032385;28;20209;-88
2021/08/31 11:03:42;;;;;;;8.70;6.32;;;21.10;99.90;;;;;;5033813;28;20647;-86
2021/08/31 11:06:29;;;;;;;7.47;6.47;;;20.70;99.90;;;;;;5030638;28;20198;-86
2021/08/31 11:09:24;;;;;;;9.63;6.57;;;20.40;99.90;;;;;;5005711;28;20206;-85
2021/08/31 11:12:05;;;;;;;7.15;5.95;;;20.20;99.90;;;;;;5029463;28;20256;-84
2021/08/31 11:14:58;;;;;;;8.73;6.28;;;20.40;99.90;;;;;;5028205;28;20208;-86
2021/08/31 11:17:36;;;;;;;11.25;7.72;;;20.20;99.90;;;;;;5024007;28;20284;-85
2021/08/31 11:20:26;;;;;;;10.50;7.05;;;19.80;99.90;;;;;;5031269;28;20255;-85
2021/08/31 11:23:04;;;;;;;9.80;6.32;;;20.30;99.90;;;;;;5016949;28;20748;-84
2021/08/31 11:25:33;;;;;;;11.40;7.05;;;21.00;99.90;;;;;;5023147;28;20225;-85
2021/08/31 11:28:02;;;;;;;9.15;6.50;;;21.00;99.90;;;;;;5018022;28;20821;-85
2021/08/31 11:30:47;;;;;;;7.70;6.22;;;21.20;99.90;;;;;;5024897;28;20197;-84
2021/08/31 11:33:21;;;;;;;9.23;6.75;;;20.70;99.90;;;;;;5021605;28;20288;-85
2021/08/31 11:35:51;;;;;;;13.95;6.65;;;20.30;99.90;;;;;;5021235;28;20233;-84
2021/08/31 11:38:29;;;;;;;9.30;6.53;;;20.20;99.90;;;;;;5015775;28;20221;-84
2021/08/31 11:40:56;;;;;;;11.68;6.35;;;20.00;99.90;;;;;;5024956;28;20725;-84
2021/08/31 11:43:31;;;;;;;10.15;5.68;;;20.00;99.90;;;;;;5027480;28;20248;-84
2021/08/31 11:46:00;;;;;;;10.93;6.90;;;20.30;99.90;;;;;;5028032;28;20224;-85
2021/08/31 11:48:31;;;;;;;8.73;6.07;;;20.60;99.90;;;;;;5030774;28;20309;-84
2021/08/31 11:50:59;;;;;;;9.98;6.63;;;20.70;99.90;;;;;;5023799;28;20221;-84
2021/08/31 11:53:27;;;;;;;7.32;5.72;;;21.10;99.90;;;;;;5035817;28;20214;-83
2021/08/31 11:56:12;;;;;;;9.43;6.72;;;21.00;99.90;;;;;;5029869;28;20210;-84
2021/08/31 11:58:47;;;;;;;10.52;5.93;;;20.80;99.90;;;;;;5020376;28;20640;-84
2021/08/31 12:01:30;;;;;;;10.45;5.57;;;21.20;99.90;;;;;;5025035;28;20216;-83
2021/08/31 12:04:12;;;;;;;7.80;6.03;;;21.50;99.90;;;;;;5017066;28;20271;-82
2021/08/31 12:06:43;;;;;;;8.63;6.20;;;21.40;99.90;;;;;;5016412;28;20288;-84
2021/08/31 12:09:19;;;;;;;9.45;5.95;;;21.20;99.90;;;;;;5026027;28;20200;-84
2021/08/31 12:11:47;;;;;;;10.70;6.78;;;21.10;99.90;;;;;;5014734;28;20569;-83
2021/08/31 12:14:17;;;;;;;9.10;6.82;;;21.00;99.90;;;;;;5014385;28;20197;-82
2021/08/31 12:16:47;;;;;;;9.20;6.70;;;20.80;99.90;;;;;;5023168;28;20195;-83
2021/08/31 12:19:20;;;;;;;12.23;7.20;;;20.80;99.90;;;;;;5026088;28;20664;-82
2021/08/31 12:22:08;;;;;;;8.40;5.80;;;21.00;99.90;;;;;;5027566;28;20312;-83
2021/08/31 12:24:36;;;;;;;6.82;4.40;;;21.50;99.90;;;;;;5024965;28;20225;-83
2021/08/31 12:27:08;;;;;;;8.82;5.50;;;21.20;99.60;;;;;;5013786;28;20719;-83
2021/08/31 12:29:46;;;;;;;10.52;6.13;;;21.00;99.90;;;;;;5016902;28;20226;-82
2021/08/31 12:32:15;;;;;;;8.65;6.07;;;21.10;99.90;;;;;;5011981;28;20198;-82
2021/08/31 12:34:41;;;;;;;10.65;5.82;;;21.20;99.90;;;;;;5020825;28;20641;-83
2021/08/31 12:37:28;;;;;;;11.43;6.68;;;21.40;99.90;;;;;;5032143;28;20244;-83
2021/08/31 12:40:17;;;;;;;9.65;6.10;;;21.60;99.90;;;;;;5020626;28;20222;-84
2021/08/31 12:42:45;;;;;;;11.05;6.88;;;22.20;99.70;;;;;;5021715;28;20222;-83
2021/08/31 12:48:36;;;;;;;8.75;5.82;;;22.90;97.50;;;;;;5027528;28;20221;-84